createdAt,value
2024-03-28T00:00:26.437Z,436.00
2024-03-28T00:01:26.412Z,433.00
2024-03-28T00:02:26.438Z,432.00
2024-03-28T00:03:26.463Z,433.00
2024-03-28T00:04:26.504Z,432.00
2024-03-28T00:55:50.028Z,440.00
2024-03-28T00:56:26.789Z,440.00
2024-03-28T00:57:26.787Z,438.00
2024-03-28T00:58:26.788Z,437.00
2024-03-28T00:59:26.788Z,436.00
2024-03-28T01:00:26.784Z,436.00
2024-03-28T01:01:26.791Z,439.00
2024-03-28T01:02:26.792Z,439.00
2024-03-28T01:03:26.783Z,440.00
2024-03-28T01:04:26.789Z,439.00
2024-03-28T01:05:26.800Z,440.00
2024-03-28T01:06:26.797Z,439.00
2024-03-28T01:07:26.811Z,439.00
2024-03-28T01:08:26.818Z,442.00
2024-03-28T01:09:26.841Z,442.00
2024-03-28T01:10:26.805Z,442.00
2024-03-28T01:11:26.817Z,439.00
2024-03-28T01:12:26.810Z,438.00
2024-03-28T01:13:26.811Z,438.00
2024-03-28T01:14:26.816Z,437.00
2024-03-28T01:15:26.820Z,436.00
2024-03-28T01:16:26.826Z,438.00
2024-03-28T01:17:26.858Z,440.00
2024-03-28T01:18:26.823Z,439.00
2024-03-28T01:19:26.824Z,436.00
2024-03-28T01:20:26.818Z,435.00
2024-03-28T01:21:26.818Z,434.00
2024-03-28T01:22:26.826Z,433.00
2024-03-28T01:23:26.823Z,433.00
2024-03-28T01:24:26.824Z,431.00
2024-03-28T01:25:26.827Z,434.00
2024-03-28T01:26:26.826Z,435.00
2024-03-28T01:27:26.890Z,436.00
2024-03-28T01:28:26.824Z,437.00
2024-03-28T01:29:26.830Z,437.00
2024-03-28T01:30:26.823Z,435.00
2024-03-28T01:31:26.826Z,438.00
2024-03-28T01:32:26.866Z,435.00
2024-03-28T01:33:26.830Z,433.00
2024-03-28T01:34:26.834Z,434.00
2024-03-28T01:35:26.834Z,434.00
2024-03-28T01:36:26.848Z,434.00
2024-03-28T01:37:26.848Z,433.00
2024-03-28T01:38:26.840Z,433.00
2024-03-28T01:39:26.839Z,432.00
2024-03-28T01:40:26.841Z,432.00
2024-03-28T01:41:26.860Z,431.00
2024-03-28T01:42:26.861Z,430.00
2024-03-28T01:43:26.882Z,430.00
2024-03-28T01:44:26.851Z,430.00
2024-03-28T01:45:26.848Z,430.00
2024-03-28T01:46:40.425Z,430.00
2024-03-28T01:48:26.858Z,435.00
2024-03-28T01:49:26.854Z,434.00
2024-03-28T01:50:26.867Z,436.00
2024-03-28T01:51:26.858Z,434.00
2024-03-28T01:52:26.855Z,432.00
2024-03-28T01:53:26.861Z,434.00
2024-03-28T01:54:26.854Z,433.00
2024-03-28T01:55:26.847Z,433.00
2024-03-28T01:56:26.855Z,433.00
2024-03-28T01:57:26.860Z,432.00
2024-03-28T01:58:26.872Z,431.00
2024-03-28T01:59:26.882Z,432.00
2024-03-28T02:00:26.857Z,430.00
2024-03-28T02:01:26.862Z,431.00
2024-03-28T02:02:26.878Z,429.00
2024-03-28T02:03:26.877Z,429.00
2024-03-28T02:04:26.864Z,426.00
2024-03-28T02:05:26.866Z,423.00
2024-03-28T02:06:26.864Z,424.00
2024-03-28T02:07:26.870Z,422.00
2024-03-28T02:08:26.864Z,422.00
2024-03-28T02:09:26.861Z,421.00
2024-03-28T02:10:26.865Z,421.00
2024-03-28T02:11:26.866Z,421.00
2024-03-28T02:12:26.878Z,424.00
2024-03-28T02:13:26.876Z,427.00
2024-03-28T02:14:26.876Z,423.00
2024-03-28T02:15:26.889Z,424.00
2024-03-28T02:16:26.878Z,423.00
2024-03-28T02:17:26.893Z,423.00
2024-03-28T02:18:26.894Z,422.00
2024-03-28T02:19:26.879Z,423.00
2024-03-28T02:20:26.880Z,423.00
2024-03-28T02:21:26.897Z,422.00
2024-03-28T02:22:26.890Z,424.00
2024-03-28T02:23:26.907Z,426.00
2024-03-28T02:24:26.895Z,427.00
2024-03-28T02:25:26.882Z,426.00
2024-03-28T02:26:26.898Z,425.00
2024-03-28T02:27:26.888Z,422.00
2024-03-28T02:28:26.909Z,421.00
2024-03-28T02:29:26.886Z,423.00
2024-03-28T02:30:26.891Z,425.00
2024-03-28T02:31:26.906Z,426.00
2024-03-28T02:32:26.907Z,426.00
2024-03-28T02:33:26.905Z,427.00
2024-03-28T02:34:26.901Z,426.00
2024-03-28T02:35:26.904Z,426.00
2024-03-28T02:36:26.895Z,428.00
2024-03-28T02:37:26.925Z,429.00
2024-03-28T02:38:26.963Z,431.00
2024-03-28T02:39:26.986Z,431.00
2024-03-28T02:40:27.036Z,429.00
2024-03-28T02:41:27.058Z,428.00
2024-03-28T02:42:27.093Z,428.00
2024-03-28T02:43:27.125Z,426.00
2024-03-28T02:44:27.148Z,424.00
2024-03-28T02:45:27.188Z,425.00
2024-03-28T02:46:27.211Z,425.00
2024-03-28T02:47:27.304Z,428.00
2024-03-28T02:48:27.324Z,429.00
2024-03-28T02:49:27.313Z,429.00
2024-03-28T02:50:27.327Z,427.00
2024-03-28T02:51:27.435Z,425.00
2024-03-28T02:52:27.414Z,426.00
2024-03-28T02:53:27.437Z,426.00
2024-03-28T02:54:27.480Z,426.00
2024-03-28T02:55:27.507Z,424.00
2024-03-28T02:56:27.543Z,423.00
2024-03-28T02:57:27.588Z,423.00
2024-03-28T02:58:27.614Z,425.00
2024-03-28T02:59:27.654Z,427.00
2024-03-28T03:00:27.687Z,425.00
2024-03-28T03:01:27.725Z,425.00
2024-03-28T03:02:27.763Z,426.00
2024-03-28T03:03:27.851Z,427.00
2024-03-28T03:04:27.840Z,428.00
2024-03-28T03:05:27.863Z,430.00
2024-03-28T03:06:27.914Z,431.00
2024-03-28T03:07:27.953Z,427.00
2024-03-28T03:08:27.988Z,426.00
2024-03-28T03:09:28.028Z,423.00
2024-03-28T03:10:28.055Z,423.00
2024-03-28T03:11:28.088Z,426.00
2024-03-28T03:12:28.122Z,428.00
2024-03-28T03:13:28.151Z,427.00
2024-03-28T03:14:28.202Z,426.00
2024-03-28T03:15:28.217Z,425.00
2024-03-28T03:16:28.259Z,425.00
2024-03-28T03:17:28.330Z,425.00
2024-03-28T03:18:28.331Z,426.00
2024-03-28T03:19:28.373Z,426.00
2024-03-28T03:20:28.402Z,428.00
2024-03-28T03:21:28.443Z,428.00
2024-03-28T03:22:28.487Z,427.00
2024-03-28T03:23:28.526Z,427.00
2024-03-28T03:24:28.555Z,428.00
2024-03-28T03:25:28.589Z,427.00
2024-03-28T03:26:28.619Z,427.00
2024-03-28T03:27:28.658Z,429.00
2024-03-28T03:28:28.684Z,429.00
2024-03-28T03:29:28.720Z,429.00
2024-03-28T03:30:28.760Z,430.00
2024-03-28T03:31:28.786Z,430.00
2024-03-28T03:32:28.829Z,432.00
2024-03-28T03:33:28.847Z,434.00
2024-03-28T03:34:28.877Z,434.00
2024-03-28T03:35:28.914Z,433.00
2024-03-28T03:36:28.942Z,434.00
2024-03-28T03:37:28.981Z,434.00
2024-03-28T03:38:29.004Z,434.00
2024-03-28T03:39:29.033Z,432.00
2024-03-28T03:40:29.076Z,432.00
2024-03-28T03:41:29.095Z,431.00
2024-03-28T03:42:29.143Z,432.00
2024-03-28T03:43:29.152Z,430.00
2024-03-28T03:44:29.195Z,429.00
2024-03-28T03:45:29.215Z,428.00
2024-03-28T03:46:29.255Z,428.00
2024-03-28T03:47:29.351Z,428.00
2024-03-28T03:48:29.334Z,429.00
2024-03-28T03:49:29.343Z,428.00
2024-03-28T03:50:29.394Z,427.00
2024-03-28T03:51:29.444Z,427.00
2024-03-28T03:52:29.468Z,428.00
2024-03-28T03:53:29.488Z,431.00
2024-03-28T03:54:29.563Z,432.00
2024-03-28T03:55:29.577Z,431.00
2024-03-28T03:56:29.583Z,431.00
2024-03-28T03:57:29.620Z,431.00
2024-03-28T03:58:29.665Z,430.00
2024-03-28T03:59:29.692Z,432.00
2024-03-28T04:00:29.753Z,434.00
2024-03-28T04:01:29.774Z,434.00
2024-03-28T04:02:29.802Z,434.00
2024-03-28T04:03:29.849Z,434.00
2024-03-28T04:04:29.868Z,433.00
2024-03-28T04:05:29.911Z,432.00
2024-03-28T04:06:29.938Z,434.00
2024-03-28T04:07:29.992Z,434.00
2024-03-28T04:08:30.004Z,435.00
2024-03-28T04:09:30.036Z,437.00
2024-03-28T04:10:30.061Z,435.00
2024-03-28T04:11:30.087Z,436.00
2024-03-28T04:12:30.120Z,437.00
2024-03-28T04:13:30.150Z,437.00
2024-03-28T04:14:30.190Z,436.00
2024-03-28T04:15:30.219Z,439.00
2024-03-28T04:16:30.253Z,437.00
2024-03-28T04:17:30.370Z,436.00
2024-03-28T04:18:30.300Z,434.00
2024-03-28T04:19:30.329Z,434.00
2024-03-28T04:20:30.372Z,436.00
2024-03-28T04:21:30.403Z,435.00
2024-03-28T04:22:30.430Z,436.00
2024-03-28T04:23:30.471Z,435.00
2024-03-28T04:24:30.490Z,435.00
2024-03-28T04:25:30.509Z,436.00
2024-03-28T04:26:30.542Z,433.00
2024-03-28T04:27:30.596Z,433.00
2024-03-28T04:28:30.625Z,433.00
2024-03-28T04:29:32.711Z,431.00
2024-03-28T04:30:30.664Z,432.00
2024-03-28T04:31:30.648Z,432.00
2024-03-28T04:32:30.659Z,433.00
2024-03-28T04:33:30.644Z,437.00
2024-03-28T04:34:30.666Z,439.00
2024-03-28T04:35:30.649Z,437.00
2024-03-28T04:36:30.647Z,436.00
2024-03-28T04:37:38.043Z,427.00
2024-03-28T04:38:39.036Z,430.00
2024-03-28T04:39:39.026Z,430.00
2024-03-28T04:40:39.035Z,429.00
2024-03-28T04:41:39.040Z,431.00
2024-03-28T04:42:39.038Z,431.00
2024-03-28T04:43:39.389Z,430.00
2024-03-28T04:44:39.042Z,429.00
2024-03-28T04:45:39.046Z,432.00
2024-03-28T04:46:39.102Z,434.00
2024-03-28T04:47:39.070Z,435.00
2024-03-28T04:48:39.047Z,437.00
2024-03-28T04:49:39.051Z,437.00
2024-03-28T04:50:39.052Z,438.00
2024-03-28T04:51:39.090Z,440.00
2024-03-28T04:52:39.051Z,441.00
2024-03-28T04:53:39.054Z,442.00
2024-03-28T04:54:39.065Z,444.00
2024-03-28T04:55:39.062Z,445.00
2024-03-28T04:56:39.069Z,443.00
2024-03-28T04:57:39.062Z,439.00
2024-03-28T04:58:39.057Z,437.00
2024-03-28T04:59:39.059Z,435.00
2024-03-28T05:00:39.078Z,434.00
2024-03-28T05:01:39.065Z,434.00
2024-03-28T05:02:39.082Z,435.00
2024-03-28T05:03:39.057Z,433.00
2024-03-28T05:04:39.066Z,433.00
2024-03-28T05:05:39.068Z,432.00
2024-03-28T05:06:39.071Z,432.00
2024-03-28T05:07:39.071Z,432.00
2024-03-28T05:08:39.072Z,428.00
2024-03-28T05:09:39.081Z,427.00
2024-03-28T05:10:39.102Z,427.00
2024-03-28T05:11:39.093Z,429.00
2024-03-28T05:12:39.084Z,431.00
2024-03-28T05:13:39.099Z,433.00
2024-03-28T05:14:39.080Z,433.00
2024-03-28T05:15:39.102Z,433.00
2024-03-28T05:16:39.081Z,434.00
2024-03-28T05:17:39.093Z,432.00
2024-03-28T05:18:39.082Z,433.00
2024-03-28T05:19:39.089Z,433.00
2024-03-28T05:20:39.092Z,434.00
2024-03-28T05:21:39.117Z,435.00
2024-03-28T05:22:39.142Z,436.00
2024-03-28T05:23:39.157Z,434.00
2024-03-28T05:24:39.185Z,432.00
2024-03-28T05:25:39.222Z,431.00
2024-03-28T05:26:39.251Z,430.00
2024-03-28T05:27:39.262Z,432.00
2024-03-28T05:28:39.292Z,432.00
2024-03-28T05:29:39.321Z,432.00
2024-03-28T05:30:39.343Z,431.00
2024-03-28T05:31:39.370Z,434.00
2024-03-28T05:32:39.406Z,434.00
2024-03-28T05:33:39.505Z,433.00
2024-03-28T05:34:39.460Z,433.00
2024-03-28T05:35:39.486Z,432.00
2024-03-28T05:36:39.512Z,432.00
2024-03-28T05:37:39.541Z,435.00
2024-03-28T05:38:39.568Z,434.00
2024-03-28T05:39:39.596Z,435.00
2024-03-28T05:40:39.630Z,435.00
2024-03-28T05:41:39.658Z,434.00
2024-03-28T05:42:39.690Z,434.00
2024-03-28T05:43:39.736Z,436.00
2024-03-28T05:44:39.726Z,437.00
2024-03-28T05:45:39.762Z,434.00
2024-03-28T05:46:39.793Z,434.00
2024-03-28T05:47:39.831Z,434.00
2024-03-28T05:48:39.851Z,435.00
2024-03-28T05:49:39.906Z,434.00
2024-03-28T05:50:39.893Z,434.00
2024-03-28T05:51:39.926Z,434.00
2024-03-28T05:52:39.962Z,434.00
2024-03-28T05:53:39.977Z,435.00
2024-03-28T05:54:40.004Z,435.00
2024-03-28T05:55:40.035Z,433.00
2024-03-28T05:56:42.465Z,434.00
2024-03-28T05:57:40.055Z,432.00
2024-03-28T05:58:40.079Z,432.00
2024-03-28T05:59:40.058Z,433.00
2024-03-28T06:00:40.052Z,432.00
2024-03-28T06:01:40.054Z,430.00
2024-03-28T06:02:40.068Z,428.00
2024-03-28T06:03:40.106Z,429.00
2024-03-28T06:04:40.059Z,431.00
2024-03-28T06:05:40.059Z,431.00
2024-03-28T06:06:40.063Z,430.00
2024-03-28T06:07:40.081Z,429.00
2024-03-28T06:08:40.060Z,431.00
2024-03-28T06:09:40.058Z,432.00
2024-03-28T06:10:40.065Z,431.00
2024-03-28T06:11:40.069Z,431.00
2024-03-28T06:12:40.110Z,428.00
2024-03-28T06:13:40.063Z,427.00
2024-03-28T06:14:40.087Z,426.00
2024-03-28T06:15:40.076Z,424.00
2024-03-28T06:16:40.067Z,425.00
2024-03-28T06:17:40.079Z,425.00
2024-03-28T06:18:40.081Z,429.00
2024-03-28T06:19:40.068Z,431.00
2024-03-28T06:20:40.306Z,433.00
2024-03-28T06:21:40.075Z,433.00
2024-03-28T06:22:40.083Z,433.00
2024-03-28T06:23:40.078Z,430.00
2024-03-28T06:24:40.090Z,429.00
2024-03-28T06:25:40.089Z,427.00
2024-03-28T06:26:40.086Z,427.00
2024-03-28T06:27:40.078Z,427.00
2024-03-28T06:28:40.081Z,432.00
2024-03-28T06:29:40.085Z,433.00
2024-03-28T06:30:40.115Z,432.00
2024-03-28T06:31:40.092Z,432.00
2024-03-28T06:32:40.100Z,429.00
2024-03-28T06:33:40.087Z,428.00
2024-03-28T06:34:40.084Z,430.00
2024-03-28T06:35:40.086Z,430.00
2024-03-28T06:36:40.119Z,430.00
2024-03-28T06:37:40.102Z,432.00
2024-03-28T06:38:40.101Z,434.00
2024-03-28T06:39:40.101Z,433.00
2024-03-28T06:40:40.095Z,432.00
2024-03-28T06:41:40.097Z,431.00
2024-03-28T06:42:40.112Z,429.00
2024-03-28T06:43:40.092Z,428.00
2024-03-28T06:44:40.092Z,427.00
2024-03-28T06:45:40.098Z,427.00
2024-03-28T06:46:40.110Z,427.00
2024-03-28T06:47:40.113Z,428.00
2024-03-28T06:48:40.099Z,427.00
2024-03-28T06:49:40.107Z,427.00
2024-03-28T06:50:40.108Z,425.00
2024-03-28T06:51:40.110Z,427.00
2024-03-28T06:52:40.119Z,426.00
2024-03-28T06:53:40.113Z,425.00
2024-03-28T06:54:40.121Z,424.00
2024-03-28T06:55:40.119Z,424.00
2024-03-28T06:56:40.113Z,422.00
2024-03-28T06:57:40.119Z,421.00
2024-03-28T06:58:40.109Z,422.00
2024-03-28T06:59:40.118Z,423.00
2024-03-28T07:00:40.118Z,424.00
2024-03-28T07:01:40.129Z,424.00
2024-03-28T07:02:40.147Z,424.00
2024-03-28T07:03:42.785Z,426.00
2024-03-28T07:04:40.120Z,428.00
2024-03-28T07:05:40.126Z,426.00
2024-03-28T07:06:40.123Z,427.00
2024-03-28T07:07:40.128Z,428.00
2024-03-28T07:08:40.123Z,426.00
2024-03-28T07:09:40.130Z,426.00
2024-03-28T07:10:40.137Z,426.00
2024-03-28T07:11:40.126Z,426.00
2024-03-28T07:12:40.139Z,424.00
2024-03-28T07:13:40.120Z,423.00
2024-03-28T07:14:40.142Z,427.00
2024-03-28T07:15:40.128Z,428.00
2024-03-28T07:16:40.134Z,430.00
2024-03-28T07:17:40.136Z,429.00
2024-03-28T07:18:40.184Z,429.00
2024-03-28T07:19:40.138Z,430.00
2024-03-28T07:20:40.131Z,429.00
2024-03-28T07:21:40.158Z,428.00
2024-03-28T07:22:40.128Z,427.00
2024-03-28T07:23:40.138Z,427.00
2024-03-28T07:24:40.159Z,427.00
2024-03-28T07:25:40.136Z,425.00
2024-03-28T07:26:40.192Z,423.00
2024-03-28T07:27:40.142Z,424.00
2024-03-28T07:28:40.145Z,426.00
2024-03-28T07:29:40.145Z,429.00
2024-03-28T07:30:40.152Z,432.00
2024-03-28T07:31:40.246Z,435.00
2024-03-28T07:32:40.148Z,436.00
2024-03-28T07:33:40.149Z,436.00
2024-03-28T07:34:40.164Z,435.00
2024-03-28T07:35:40.177Z,436.00
2024-03-28T07:36:40.165Z,436.00
2024-03-28T07:37:40.176Z,434.00
2024-03-28T07:38:40.153Z,435.00
2024-03-28T07:39:40.146Z,436.00
2024-03-28T07:40:40.157Z,437.00
2024-03-28T07:41:40.162Z,438.00
2024-03-28T07:42:40.169Z,439.00
2024-03-28T07:43:40.172Z,437.00
2024-03-28T07:44:40.172Z,436.00
2024-03-28T07:45:40.187Z,435.00
2024-03-28T07:46:40.190Z,435.00
2024-03-28T07:47:40.260Z,435.00
2024-03-28T07:48:40.191Z,437.00
2024-03-28T07:49:40.211Z,437.00
2024-03-28T07:50:40.230Z,436.00
2024-03-28T07:51:40.212Z,437.00
2024-03-28T07:52:40.230Z,437.00
2024-03-28T07:53:40.234Z,437.00
2024-03-28T07:54:40.242Z,434.00
2024-03-28T07:55:40.240Z,435.00
2024-03-28T07:56:40.248Z,436.00
2024-03-28T07:57:40.262Z,438.00
2024-03-28T07:58:40.259Z,438.00
2024-03-28T07:59:40.266Z,438.00
2024-03-28T08:00:40.292Z,438.00
2024-03-28T08:01:40.269Z,438.00
2024-03-28T08:02:40.282Z,438.00
2024-03-28T08:03:40.502Z,440.00
2024-03-28T08:04:40.296Z,437.00
2024-03-28T08:05:40.312Z,436.00
2024-03-28T08:06:40.348Z,435.00
2024-03-28T08:07:40.329Z,435.00
2024-03-28T08:08:40.336Z,434.00
2024-03-28T08:09:40.346Z,433.00
2024-03-28T08:10:40.353Z,433.00
2024-03-28T08:11:40.361Z,432.00
2024-03-28T08:12:40.353Z,432.00
2024-03-28T08:13:40.360Z,431.00
2024-03-28T08:14:40.356Z,431.00
2024-03-28T08:15:40.379Z,430.00
2024-03-28T08:16:40.432Z,430.00
2024-03-28T08:17:40.410Z,431.00
2024-03-28T08:18:40.439Z,432.00
2024-03-28T08:19:40.464Z,433.00
2024-03-28T08:20:40.481Z,433.00
2024-03-28T08:21:40.491Z,432.00
2024-03-28T08:22:40.588Z,431.00
2024-03-28T08:23:40.500Z,432.00
2024-03-28T08:24:40.504Z,432.00
2024-03-28T08:25:40.516Z,433.00
2024-03-28T08:26:40.518Z,431.00
2024-03-28T08:27:40.544Z,429.00
2024-03-28T08:28:40.572Z,427.00
2024-03-28T08:29:40.595Z,429.00
2024-03-28T08:30:40.628Z,428.00
2024-03-28T08:31:40.637Z,429.00
2024-03-28T08:32:40.637Z,430.00
2024-03-28T08:33:40.641Z,432.00
2024-03-28T08:34:40.662Z,432.00
2024-03-28T08:35:40.697Z,432.00
2024-03-28T08:36:40.710Z,434.00
2024-03-28T08:37:40.750Z,433.00
2024-03-28T08:38:40.775Z,433.00
2024-03-28T08:39:40.773Z,434.00
2024-03-28T08:40:40.773Z,434.00
2024-03-28T08:41:40.781Z,435.00
2024-03-28T08:42:40.782Z,433.00
2024-03-28T08:43:41.013Z,432.00
2024-03-28T08:44:40.823Z,433.00
2024-03-28T08:45:40.816Z,433.00
2024-03-28T08:46:40.834Z,433.00
2024-03-28T08:47:40.904Z,434.00
2024-03-28T08:48:40.880Z,435.00
2024-03-28T08:49:40.900Z,432.00
2024-03-28T08:50:40.933Z,433.00
2024-03-28T08:51:40.970Z,433.00
2024-03-28T08:52:41.008Z,434.00
2024-03-28T08:53:41.057Z,433.00
2024-03-28T08:54:41.124Z,432.00
2024-03-28T08:55:41.139Z,432.00
2024-03-28T08:56:41.176Z,434.00
2024-03-28T08:57:41.223Z,436.00
2024-03-28T08:58:41.296Z,437.00
2024-03-28T08:59:41.317Z,440.00
2024-03-28T09:00:41.359Z,440.00
2024-03-28T09:01:41.392Z,440.00
2024-03-28T09:02:41.528Z,441.00
2024-03-28T09:03:41.552Z,440.00
2024-03-28T09:04:41.529Z,441.00
2024-03-28T09:05:41.586Z,442.00
2024-03-28T09:06:41.640Z,443.00
2024-03-28T09:07:41.720Z,442.00
2024-03-28T09:08:41.748Z,441.00
2024-03-28T09:09:41.788Z,438.00
2024-03-28T09:10:41.869Z,438.00
2024-03-28T09:11:41.894Z,439.00
2024-03-28T09:12:41.931Z,438.00
2024-03-28T09:13:41.990Z,436.00
2024-03-28T09:14:42.028Z,437.00
2024-03-28T09:15:42.088Z,436.00
2024-03-28T09:16:42.151Z,436.00
2024-03-28T09:17:42.226Z,437.00
2024-03-28T09:18:43.461Z,439.00
2024-03-28T09:19:42.247Z,440.00
2024-03-28T09:20:42.245Z,442.00
2024-03-28T09:21:42.268Z,438.00
2024-03-28T09:22:42.254Z,435.00
2024-03-28T09:23:42.248Z,434.00
2024-03-28T09:24:42.249Z,434.00
2024-03-28T09:25:42.252Z,431.00
2024-03-28T09:26:44.606Z,429.00
2024-03-28T09:27:42.325Z,430.00
2024-03-28T09:28:42.272Z,429.00
2024-03-28T09:29:42.261Z,428.00
2024-03-28T09:30:42.264Z,426.00
2024-03-28T09:31:42.256Z,424.00
2024-03-28T09:32:42.264Z,427.00
2024-03-28T09:33:42.262Z,428.00
2024-03-28T09:34:42.262Z,426.00
2024-03-28T09:35:42.268Z,429.00
2024-03-28T09:36:42.271Z,428.00
2024-03-28T09:37:42.263Z,426.00
2024-03-28T09:38:42.269Z,428.00
2024-03-28T09:39:42.268Z,428.00
2024-03-28T09:40:42.298Z,427.00
2024-03-28T09:41:42.271Z,426.00
2024-03-28T09:42:42.295Z,427.00
2024-03-28T09:43:42.271Z,426.00
2024-03-28T09:44:42.277Z,428.00
2024-03-28T09:45:42.267Z,429.00
2024-03-28T09:46:42.276Z,429.00
2024-03-28T09:47:42.274Z,431.00
2024-03-28T09:48:42.273Z,433.00
2024-03-28T09:49:42.275Z,434.00
2024-03-28T09:50:42.288Z,432.00
2024-03-28T09:51:42.290Z,431.00
2024-03-28T09:52:42.284Z,429.00
2024-03-28T09:53:42.281Z,429.00
2024-03-28T09:54:42.280Z,430.00
2024-03-28T09:55:42.287Z,429.00
2024-03-28T09:56:42.287Z,429.00
2024-03-28T09:57:42.292Z,427.00
2024-03-28T09:58:42.329Z,428.00
2024-03-28T09:59:42.289Z,427.00
2024-03-28T10:00:42.300Z,428.00
2024-03-28T10:01:42.296Z,429.00
2024-03-28T10:02:42.296Z,432.00
2024-03-28T10:03:42.304Z,434.00
2024-03-28T10:04:42.324Z,434.00
2024-03-28T10:05:42.361Z,434.00
2024-03-28T10:06:42.361Z,436.00
2024-03-28T10:07:42.352Z,436.00
2024-03-28T10:08:42.355Z,438.00
2024-03-28T10:09:42.379Z,439.00
2024-03-28T10:10:42.414Z,440.00
2024-03-28T10:11:42.395Z,439.00
2024-03-28T10:12:42.406Z,441.00
2024-03-28T10:13:42.410Z,439.00
2024-03-28T10:14:42.435Z,437.00
2024-03-28T10:15:42.426Z,436.00
2024-03-28T10:16:42.432Z,436.00
2024-03-28T10:17:42.464Z,435.00
2024-03-28T10:18:42.435Z,433.00
2024-03-28T10:19:42.462Z,434.00
2024-03-28T10:20:42.447Z,435.00
2024-03-28T10:21:42.452Z,436.00
2024-03-28T10:22:42.453Z,435.00
2024-03-28T10:23:43.050Z,435.00
2024-03-28T10:24:42.463Z,434.00
2024-03-28T10:25:42.463Z,433.00
2024-03-28T10:26:42.472Z,434.00
2024-03-28T10:27:42.586Z,433.00
2024-03-28T10:28:42.499Z,432.00
2024-03-28T10:29:42.486Z,430.00
2024-03-28T10:30:42.512Z,428.00
2024-03-28T10:31:42.503Z,430.00
2024-03-28T10:32:42.503Z,431.00
2024-03-28T10:33:42.522Z,429.00
2024-03-28T10:34:42.764Z,430.00
2024-03-28T10:35:42.516Z,430.00
2024-03-28T10:36:42.525Z,432.00
2024-03-28T10:37:54.724Z,433.00
2024-03-28T10:38:42.536Z,433.00
2024-03-28T10:39:42.535Z,432.00
2024-03-28T10:40:42.601Z,432.00
2024-03-28T10:41:42.535Z,433.00
2024-03-28T10:42:42.575Z,431.00
2024-03-28T10:43:42.542Z,430.00
2024-03-28T10:44:42.545Z,430.00
2024-03-28T10:45:42.544Z,433.00
2024-03-28T10:46:42.584Z,432.00
2024-03-28T10:47:42.597Z,432.00
2024-03-28T10:48:42.556Z,430.00
2024-03-28T10:49:45.216Z,429.00
2024-03-28T10:50:42.570Z,428.00
2024-03-28T10:51:42.621Z,426.00
2024-03-28T10:52:42.659Z,425.00
2024-03-28T10:53:42.688Z,423.00
2024-03-28T10:54:42.720Z,419.00
2024-03-28T10:55:42.768Z,419.00
2024-03-28T10:56:42.777Z,420.00
2024-03-28T10:57:42.775Z,423.00
2024-03-28T10:58:42.781Z,424.00
2024-03-28T10:59:42.799Z,426.00
2024-03-28T11:00:42.808Z,426.00
2024-03-28T11:01:42.850Z,427.00
2024-03-28T11:02:42.931Z,430.00
2024-03-28T11:03:42.851Z,430.00
2024-03-28T11:04:42.857Z,431.00
2024-03-28T11:05:42.875Z,432.00
2024-03-28T11:06:42.900Z,432.00
2024-03-28T11:07:42.954Z,431.00
2024-03-28T11:08:42.942Z,430.00
2024-03-28T11:09:42.955Z,430.00
2024-03-28T11:10:42.969Z,429.00
2024-03-28T11:11:42.988Z,429.00
2024-03-28T11:12:43.009Z,427.00
2024-03-28T11:13:43.030Z,427.00
2024-03-28T11:14:43.051Z,428.00
2024-03-28T11:15:43.082Z,430.00
2024-03-28T11:16:43.105Z,429.00
2024-03-28T11:17:43.114Z,429.00
2024-03-28T11:18:43.159Z,432.00
2024-03-28T11:19:43.177Z,433.00
2024-03-28T11:20:43.162Z,436.00
2024-03-28T11:21:43.194Z,436.00
2024-03-28T11:22:43.258Z,437.00
2024-03-28T11:23:43.218Z,436.00
2024-03-28T11:24:43.257Z,437.00
2024-03-28T11:25:43.323Z,437.00
2024-03-28T11:26:43.275Z,436.00
2024-03-28T11:27:43.584Z,435.00
2024-03-28T11:28:43.353Z,434.00
2024-03-28T11:29:43.336Z,434.00
2024-03-28T11:30:43.361Z,432.00
2024-03-28T11:31:45.626Z,431.00
2024-03-28T11:32:43.404Z,430.00
2024-03-28T11:33:43.384Z,432.00
2024-03-28T11:34:43.407Z,433.00
2024-03-28T11:35:43.381Z,434.00
2024-03-28T11:36:43.393Z,432.00
2024-03-28T11:37:43.399Z,433.00
2024-03-28T11:38:43.408Z,432.00
2024-03-28T11:39:43.390Z,434.00
2024-03-28T11:40:43.398Z,434.00
2024-03-28T11:41:43.393Z,432.00
2024-03-28T11:42:46.835Z,433.00
2024-03-28T11:43:43.395Z,433.00
2024-03-28T11:44:43.405Z,432.00
2024-03-28T11:45:43.398Z,430.00
2024-03-28T11:46:43.404Z,429.00
2024-03-28T11:47:43.437Z,432.00
2024-03-28T11:48:43.396Z,433.00
2024-03-28T11:49:43.404Z,435.00
2024-03-28T11:50:43.416Z,436.00
2024-03-28T11:51:43.405Z,436.00
2024-03-28T11:52:43.403Z,434.00
2024-03-28T11:53:53.317Z,432.00
2024-03-28T11:54:43.434Z,435.00
2024-03-28T11:55:43.412Z,435.00
2024-03-28T11:56:43.409Z,434.00
2024-03-28T11:57:43.412Z,434.00
2024-03-28T11:58:43.407Z,433.00
2024-03-28T11:59:43.418Z,435.00
2024-03-28T12:00:43.414Z,436.00
2024-03-28T12:01:43.483Z,438.00
2024-03-28T12:02:43.423Z,440.00
2024-03-28T12:03:43.424Z,440.00
2024-03-28T12:04:43.432Z,439.00
2024-03-28T12:05:43.437Z,436.00
2024-03-28T12:06:43.442Z,434.00
2024-03-28T12:07:43.462Z,433.00
2024-03-28T12:08:43.438Z,433.00
2024-03-28T12:09:43.424Z,434.00
2024-03-28T12:10:43.453Z,435.00
2024-03-28T12:11:43.423Z,436.00
2024-03-28T12:12:43.431Z,436.00
2024-03-28T12:13:43.458Z,436.00
2024-03-28T12:14:43.450Z,436.00
2024-03-28T12:15:43.429Z,435.00
2024-03-28T12:16:43.434Z,433.00
2024-03-28T12:17:43.440Z,435.00
2024-03-28T12:18:43.439Z,436.00
2024-03-28T12:19:43.434Z,437.00
2024-03-28T12:20:43.437Z,438.00
2024-03-28T12:21:43.463Z,439.00
2024-03-28T12:22:43.477Z,439.00
2024-03-28T12:23:43.459Z,437.00
2024-03-28T12:24:43.455Z,434.00
2024-03-28T12:25:43.446Z,433.00
2024-03-28T12:26:43.451Z,433.00
2024-03-28T12:27:43.465Z,434.00
2024-03-28T12:28:43.454Z,434.00
2024-03-28T12:29:43.455Z,435.00
2024-03-28T12:30:43.457Z,434.00
2024-03-28T12:31:43.451Z,435.00
2024-03-28T12:32:43.458Z,436.00
2024-03-28T12:33:43.462Z,435.00
2024-03-28T12:34:43.458Z,433.00
2024-03-28T12:35:43.461Z,432.00
2024-03-28T12:36:43.460Z,430.00
2024-03-28T12:37:43.465Z,429.00
2024-03-28T12:38:43.481Z,429.00
2024-03-28T12:39:43.462Z,428.00
2024-03-28T12:40:43.483Z,428.00
2024-03-28T12:41:43.490Z,429.00
2024-03-28T12:42:43.476Z,429.00
2024-03-28T12:43:43.478Z,430.00
2024-03-28T12:44:43.495Z,432.00
2024-03-28T12:45:43.479Z,434.00
2024-03-28T12:46:43.483Z,436.00
2024-03-28T12:47:43.480Z,438.00
2024-03-28T12:48:43.479Z,436.00
2024-03-28T12:49:43.502Z,436.00
2024-03-28T12:50:43.498Z,434.00
2024-03-28T12:51:43.526Z,433.00
2024-03-28T12:52:43.541Z,434.00
2024-03-28T12:53:43.574Z,435.00
2024-03-28T12:54:44.143Z,435.00
2024-03-28T12:55:43.622Z,433.00
2024-03-28T12:56:43.652Z,434.00
2024-03-28T12:57:43.673Z,432.00
2024-03-28T12:58:43.703Z,432.00
2024-03-28T12:59:43.720Z,435.00
2024-03-28T13:00:43.800Z,436.00
2024-03-28T13:01:43.773Z,435.00
2024-03-28T13:02:43.796Z,436.00
2024-03-28T13:03:43.825Z,437.00
2024-03-28T13:04:44.116Z,437.00
2024-03-28T13:05:43.875Z,437.00
2024-03-28T13:06:54.136Z,435.00
2024-03-28T13:07:43.931Z,432.00
2024-03-28T13:08:43.910Z,433.00
2024-03-28T13:09:43.900Z,434.00
2024-03-28T13:10:44.016Z,433.00
2024-03-28T13:11:43.899Z,433.00
2024-03-28T13:12:43.896Z,432.00
2024-03-28T13:13:43.912Z,432.00
2024-03-28T13:14:43.904Z,434.00
2024-03-28T13:15:43.894Z,435.00
2024-03-28T13:16:43.905Z,431.00
2024-03-28T13:17:43.898Z,431.00
2024-03-28T13:18:43.906Z,430.00
2024-03-28T13:19:43.910Z,431.00